Time;durP1;ratioP1;P1;durP2;ratioP2;P2;SDS_P1;SDS_P2;PMS_P1;PMS_P2;Temp;Humidity;BMP_temperature;BMP_pressure;BME280_temperature;BME280_humidity;BME280_pressure;Samples;Min_cycle;Max_cycle;Signal;HPM_P1;HPM_P2
2021/04/25 00:00:20;;;;;;;17.07;10.67;;;;;;;8.33;52.61;96238.56;1037042;28;20128;-49
2021/04/25 00:00:50;;;;;;;18.83;10.73;;;;;;;8.32;52.69;96241.38;1037014;28;20507;-51
2021/04/25 00:01:21;;;;;;;19.80;10.67;;;;;;;8.33;52.70;96243.81;1037244;28;20018;-52
2021/04/25 00:01:51;;;;;;;19.20;11.30;;;;;;;8.33;52.39;96240.38;1036909;28;20006;-50
2021/04/25 00:02:22;;;;;;;21.23;11.30;;;;;;;8.35;52.70;96246.25;1036904;28;20014;-50
2021/04/25 00:02:52;;;;;;;20.90;10.90;;;;;;;8.34;52.40;96242.03;1036968;28;20056;-51
2021/04/25 00:03:23;;;;;;;19.30;10.83;;;;;;;8.33;52.67;96243.81;1032851;28;20109;-51
2021/04/25 00:03:53;;;;;;;18.40;11.33;;;;;;;8.32;52.60;96236.97;1036917;28;20515;-51
2021/04/25 00:04:23;;;;;;;19.80;11.87;;;;;;;8.30;53.16;96249.41;1032469;28;20014;-50
2021/04/25 00:04:54;;;;;;;20.90;10.83;;;;;;;8.27;54.08;96244.53;1032995;28;20390;-49
2021/04/25 00:05:25;;;;;;;19.63;10.93;;;;;;;8.26;54.37;96242.09;1036994;28;20010;-48
2021/04/25 00:05:55;;;;;;;19.43;11.20;;;;;;;8.26;54.65;96239.47;1032646;28;20018;-49
2021/04/25 00:06:26;;;;;;;19.63;11.57;;;;;;;8.19;54.11;96242.78;1036689;28;20560;-48
2021/04/25 00:06:56;;;;;;;21.40;11.03;;;;;;;8.15;55.04;96233.69;1036880;28;20469;-49
2021/04/25 00:07:27;;;;;;;21.33;12.17;;;;;;;8.17;54.25;96244.78;1036833;28;20017;-49
2021/04/25 00:07:57;;;;;;;20.20;11.37;;;;;;;8.17;54.88;96241.38;1037150;28;20029;-48
2021/04/25 00:08:28;;;;;;;21.00;12.10;;;;;;;8.16;54.39;96247.59;1037214;28;20018;-49
2021/04/25 00:08:59;;;;;;;21.02;10.95;;;;;;;8.19;53.53;96242.78;1037265;28;20041;-48
2021/04/25 00:09:29;;;;;;;17.23;10.30;;;;;;;8.17;53.33;96236.94;1037015;28;20053;-49
2021/04/25 00:10:00;;;;;;;19.20;10.53;;;;;;;8.18;53.55;96238.56;1036846;28;20044;-49
2021/04/25 00:10:30;;;;;;;17.03;10.67;;;;;;;8.15;53.48;96235.47;1036881;28;20064;-49
2021/04/25 00:11:01;;;;;;;19.70;10.00;;;;;;;8.11;54.67;96239.44;1036871;28;20034;-49
2021/04/25 00:11:31;;;;;;;21.37;11.27;;;;;;;8.14;54.25;96239.91;1036702;28;20036;-49
2021/04/25 00:12:02;;;;;;;17.70;10.50;;;;;;;8.16;53.92;96232.66;1036675;28;20061;-48
2021/04/25 00:12:33;;;;;;;20.30;10.10;;;;;;;8.15;54.01;96236.31;1036993;28;20424;-49
2021/04/25 00:13:03;;;;;;;21.37;10.23;;;;;;;8.14;54.12;96234.66;1036776;28;20026;-49
2021/04/25 00:13:34;;;;;;;15.47;10.07;;;;;;;8.12;55.19;96235.81;1036826;28;20053;-49
2021/04/25 00:14:04;;;;;;;19.67;10.50;;;;;;;8.12;54.12;96241.91;1037184;28;20526;-49
2021/04/25 00:14:35;;;;;;;18.63;10.23;;;;;;;8.10;54.89;96243.84;1037112;28;20025;-50
2021/04/25 00:15:06;;;;;;;15.67;10.10;;;;;;;8.13;54.11;96238.25;1037259;28;20108;-48
2021/04/25 00:15:36;;;;;;;17.45;9.90;;;;;;;8.14;53.35;96234.66;1037042;28;20080;-49
2021/04/25 00:16:07;;;;;;;15.40;9.53;;;;;;;8.16;52.93;96237.91;1037199;28;20080;-50
2021/04/25 00:16:37;;;;;;;19.60;10.07;;;;;;;8.14;53.60;96237.28;1036797;28;20029;-48
2021/04/25 00:17:08;;;;;;;20.43;10.23;;;;;;;8.10;53.78;96225.50;1036995;28;20013;-48
2021/04/25 00:17:38;;;;;;;18.40;9.93;;;;;;;8.12;54.68;96234.03;1036880;28;20109;-48
2021/04/25 00:18:09;;;;;;;17.07;10.13;;;;;;;8.06;53.97;96233.91;1036966;28;20060;-48
2021/04/25 00:18:39;;;;;;;19.07;10.37;;;;;;;8.09;53.59;96226.50;1036494;28;20057;-48
2021/04/25 00:19:09;;;;;;;19.93;9.87;;;;;;;8.09;53.79;96231.75;1036733;28;20045;-48
2021/04/25 00:19:40;;;;;;;17.30;10.10;;;;;;;8.11;53.14;96235.00;1036477;28;20102;-48
2021/04/25 00:20:11;;;;;;;18.80;9.73;;;;;;;8.10;53.03;96233.38;1036644;28;20026;-49
2021/04/25 00:20:41;;;;;;;17.63;10.55;;;;;;;8.06;53.79;96232.13;1036892;28;20022;-48
2021/04/25 00:21:12;;;;;;;17.07;9.80;;;;;;;8.04;53.41;96225.41;1036986;28;20029;-48
2021/04/25 00:21:42;;;;;;;19.43;9.97;;;;;;;8.06;53.52;96239.97;1036911;28;20018;-48
2021/04/25 00:22:13;;;;;;;16.57;10.10;;;;;;;8.05;53.69;96234.88;1036670;28;20025;-48
2021/04/25 00:22:43;;;;;;;20.23;9.67;;;;;;;8.03;54.31;96227.19;1036596;28;20105;-47
2021/04/25 00:23:14;;;;;;;18.37;10.20;;;;;;;7.99;53.80;96226.75;1032580;28;20113;-49
2021/04/25 00:23:44;;;;;;;15.83;9.87;;;;;;;8.00;53.49;96222.31;1032554;28;20049;-47
2021/04/25 00:24:15;;;;;;;17.73;9.97;;;;;;;7.98;53.87;96225.09;1036432;28;20036;-47
2021/04/25 00:24:45;;;;;;;16.27;9.50;;;;;;;8.03;53.61;96223.75;1036614;28;20022;-48
2021/04/25 00:25:16;;;;;;;15.70;9.13;;;;;;;8.01;53.03;96229.19;1037345;28;20018;-49
2021/04/25 00:25:46;;;;;;;17.33;9.33;;;;;;;8.00;53.29;96224.94;1037073;28;20072;-48
2021/04/25 00:26:17;;;;;;;15.47;9.57;;;;;;;8.00;54.20;96228.38;1036827;28;20018;-48
2021/04/25 00:26:48;;;;;;;18.70;9.75;;;;;;;7.97;53.80;96225.28;1036842;28;20069;-48
2021/04/25 00:27:18;;;;;;;17.67;9.53;;;;;;;7.91;53.80;96231.22;1036921;28;20033;-48
2021/04/25 00:27:49;;;;;;;22.60;9.33;;;;;;;7.90;54.11;96219.94;1036926;28;20527;-48
2021/04/25 00:28:19;;;;;;;16.37;9.47;;;;;;;7.88;53.46;96218.47;1036977;28;20325;-48
2021/04/25 00:28:50;;;;;;;18.50;9.37;;;;;;;7.79;54.42;96231.66;1036912;28;20022;-48
2021/04/25 00:29:20;;;;;;;19.33;9.60;;;;;;;7.69;53.82;96231.06;1036917;28;20082;-48
2021/04/25 00:29:51;;;;;;;21.50;10.10;;;;;;;7.72;54.11;96229.91;1036776;28;20376;-48
2021/04/25 00:30:21;;;;;;;16.60;9.37;;;;;;;7.79;54.71;96228.22;1036995;28;20461;-48
2021/04/25 00:30:52;;;;;;;19.53;10.30;;;;;;;7.77;54.69;96228.41;1032322;28;20041;-49
2021/04/25 00:31:22;;;;;;;15.80;9.80;;;;;;;7.79;53.82;96233.47;1032520;28;20034;-48
2021/04/25 00:31:53;;;;;;;19.47;10.40;;;;;;;7.80;54.59;96233.28;1031711;28;20453;-48
2021/04/25 00:32:23;;;;;;;18.33;9.90;;;;;;;7.81;54.18;96229.66;1032702;28;20437;-48
2021/04/25 00:32:54;;;;;;;18.07;9.37;;;;;;;7.83;53.55;96224.25;1036538;28;20060;-48
2021/04/25 00:33:24;;;;;;;18.03;9.20;;;;;;;7.82;53.69;96226.06;1036638;28;20072;-48
2021/04/25 00:33:55;;;;;;;17.93;10.30;;;;;;;7.82;53.75;96226.06;1036845;28;20484;-48
2021/04/25 00:34:25;;;;;;;14.03;9.07;;;;;;;7.82;54.59;96228.69;1036835;28;20022;-48
2021/04/25 00:34:56;;;;;;;17.83;9.93;;;;;;;7.84;54.19;96225.88;1036353;28;20487;-48
2021/04/25 00:35:26;;;;;;;16.40;9.77;;;;;;;7.87;54.56;96222.09;1036606;28;20022;-47
2021/04/25 00:35:57;;;;;;;20.27;9.90;;;;;;;7.85;55.04;96229.31;1036402;28;20045;-48
2021/04/25 00:36:27;;;;;;;15.60;9.27;;;;;;;7.80;54.75;96225.44;1036770;28;20075;-47
2021/04/25 00:36:57;;;;;;;18.03;9.13;;;;;;;7.83;54.53;96224.25;1040536;28;20491;-48
2021/04/25 00:37:28;;;;;;;16.03;9.07;;;;;;;7.83;54.87;96226.84;1040682;28;20025;-48
2021/04/25 00:37:58;;;;;;;18.90;9.30;;;;;;;7.84;55.06;96228.50;1040464;28;20109;-48
2021/04/25 00:38:29;;;;;;;16.40;9.17;;;;;;;7.82;55.18;96218.19;1036423;28;20025;-48
2021/04/25 00:38:59;;;;;;;16.60;9.03;;;;;;;7.79;54.72;96222.97;1036840;28;20022;-48
2021/04/25 00:39:30;;;;;;;19.23;9.37;;;;;;;7.80;54.49;96227.22;1036492;28;20021;-47
2021/04/25 00:40:00;;;;;;;15.33;9.10;;;;;;;7.77;54.71;96223.16;1036397;28;20022;-48
2021/04/25 00:40:31;;;;;;;17.53;9.23;;;;;;;7.79;54.18;96229.03;1036565;28;20516;-48
2021/04/25 00:41:01;;;;;;;14.80;9.50;;;;;;;7.78;54.08;96224.75;1036353;28;20022;-49
2021/04/25 00:41:32;;;;;;;17.87;9.80;;;;;;;7.77;54.41;96228.41;1036696;28;20136;-48
2021/04/25 00:42:02;;;;;;;17.87;9.73;;;;;;;7.76;54.88;96232.00;1036609;28;20080;-48
2021/04/25 00:42:33;;;;;;;14.97;9.00;;;;;;;7.62;55.12;96220.47;1036768;28;20088;-49
2021/04/25 00:43:03;;;;;;;19.20;9.73;;;;;;;7.67;55.53;96227.81;1036670;28;20045;-48
2021/04/25 00:43:34;;;;;;;18.77;9.70;;;;;;;7.59;55.04;96223.44;1036592;28;20025;-47
2021/04/25 00:44:08;;;;;;;18.23;9.87;;;;;;;7.60;55.10;96226.84;1036455;28;20057;-51
2021/04/25 00:44:38;;;;;;;19.35;9.65;;;;;;;7.66;54.89;96223.53;1036382;28;20053;-48
2021/04/25 00:45:12;;;;;;;18.83;9.53;;;;;;;7.68;55.28;96223.38;1032490;28;20037;-48
2021/04/25 00:45:43;;;;;;;17.27;8.70;;;;;;;7.69;54.95;96220.56;1033510;28;20034;-47
2021/04/25 00:46:13;;;;;;;15.93;9.27;;;;;;;7.72;54.47;96229.91;1036316;28;20412;-47
2021/04/25 00:46:44;;;;;;;24.00;9.50;;;;;;;7.75;54.09;96227.72;1036523;28;20025;-49
2021/04/25 00:47:14;;;;;;;16.07;9.00;;;;;;;7.75;54.34;96225.13;1036802;28;20018;-47
2021/04/25 00:47:46;;;;;;;15.27;9.50;;;;;;;7.74;54.46;96220.03;1036909;28;20025;-47
2021/04/25 00:48:16;;;;;;;17.63;9.43;;;;;;;7.70;54.39;96227.47;1036745;28;20014;-47
2021/04/25 00:48:47;;;;;;;17.10;9.27;;;;;;;7.72;54.05;96219.41;1036872;28;20026;-47
2021/04/25 00:49:17;;;;;;;18.37;8.70;;;;;;;7.70;54.45;96224.00;1036833;28;20029;-47
2021/04/25 00:49:48;;;;;;;17.57;9.67;;;;;;;7.71;54.87;96225.63;1036594;28;20036;-48
2021/04/25 00:50:21;;;;;;;22.77;8.80;;;;;;;7.71;55.42;96229.06;1036471;28;20032;-48
2021/04/25 00:50:51;;;;;;;15.73;9.43;;;;;;;7.71;55.12;96228.25;1036643;28;20026;-47
2021/04/25 00:51:22;;;;;;;14.47;8.90;;;;;;;7.65;54.97;96220.13;1036520;28;20113;-47
2021/04/25 00:51:53;;;;;;;16.50;9.20;;;;;;;7.62;55.89;96219.63;1036767;28;20028;-48
2021/04/25 00:52:23;;;;;;;16.40;8.50;;;;;;;7.60;55.57;96222.44;1032438;28;20049;-48
2021/04/25 00:52:55;;;;;;;14.97;8.93;;;;;;;7.61;55.44;96228.50;1032496;28;20037;-48
2021/04/25 00:53:26;;;;;;;16.23;9.05;;;;;;;7.60;55.94;96230.28;1032431;28;20022;-49
2021/04/25 00:53:56;;;;;;;14.27;8.33;;;;;;;7.54;55.81;96220.50;1029189;28;20430;-49
2021/04/25 00:54:27;;;;;;;17.83;9.80;;;;;;;7.50;56.40;96224.47;1028468;28;20026;-48
2021/04/25 00:54:57;;;;;;;19.67;9.67;;;;;;;7.43;56.01;96228.78;1024905;29;20074;-49
2021/04/25 00:55:28;;;;;;;18.17;9.17;;;;;;;7.39;55.96;96230.09;1024890;28;20039;-48
2021/04/25 00:55:59;;;;;;;16.38;9.43;;;;;;;7.43;57.26;96226.94;1028902;28;20097;-48
2021/04/25 00:56:29;;;;;;;18.63;9.37;;;;;;;7.45;55.67;96232.03;1037011;28;20076;-48
2021/04/25 00:57:00;;;;;;;19.63;9.07;;;;;;;7.38;56.12;96233.69;1032641;28;20026;-47
2021/04/25 00:57:30;;;;;;;18.17;9.30;;;;;;;7.43;57.23;96231.38;1032816;28;20022;-48
2021/04/25 00:58:02;;;;;;;16.00;9.63;;;;;;;7.38;56.22;96228.44;1032638;28;20385;-47
2021/04/25 00:58:33;;;;;;;19.42;8.88;;;;;;;7.37;56.70;96225.03;1032981;28;20018;-49
2021/04/25 00:59:03;;;;;;;17.33;8.27;;;;;;;7.37;55.97;96226.84;1036556;28;20026;-48
2021/04/25 00:59:34;;;;;;;16.30;9.33;;;;;;;7.36;56.73;96220.75;1036613;28;20090;-48
2021/04/25 01:00:05;;;;;;;17.37;8.57;;;;;;;7.36;56.80;96223.38;1036600;28;20018;-47
2021/04/25 01:00:35;;;;;;;19.02;9.57;;;;;;;7.37;56.30;96221.59;1036796;28;20022;-48
2021/04/25 01:01:06;;;;;;;22.57;9.17;;;;;;;7.35;56.81;96221.78;1036615;28;20018;-49
2021/04/25 01:01:36;;;;;;;15.03;8.93;;;;;;;7.28;56.64;96228.69;1028713;28;20023;-48
2021/04/25 01:02:07;;;;;;;16.83;9.73;;;;;;;7.27;56.20;96222.63;1028493;28;20089;-49
2021/04/25 01:02:38;;;;;;;16.23;9.20;;;;;;;7.28;56.56;96226.88;1028631;28;20421;-49
2021/04/25 01:03:08;;;;;;;18.40;9.20;;;;;;;7.29;56.68;96222.47;1032977;28;20022;-48
2021/04/25 01:03:39;;;;;;;17.33;9.23;;;;;;;7.31;56.66;96223.09;1036954;28;20018;-48
2021/04/25 01:04:09;;;;;;;19.90;8.87;;;;;;;7.31;56.90;96217.84;1032919;28;20033;-48
2021/04/25 01:04:40;;;;;;;16.73;9.53;;;;;;;7.34;57.01;96222.75;1036721;28;20017;-49
2021/04/25 01:05:11;;;;;;;17.33;9.30;;;;;;;7.34;56.63;96227.19;1032521;28;20010;-47
2021/04/25 01:05:42;;;;;;;18.80;9.73;;;;;;;7.34;56.57;96220.13;1032922;28;20487;-48
2021/04/25 01:06:12;;;;;;;17.07;9.07;;;;;;;7.28;56.50;96220.81;1036531;28;20025;-47
2021/04/25 01:06:43;;;;;;;14.77;8.80;;;;;;;7.26;56.26;96222.81;1036787;28;20038;-47
2021/04/25 01:07:13;;;;;;;17.83;8.77;;;;;;;7.25;56.83;96221.97;1040569;28;20464;-49
2021/04/25 01:07:43;;;;;;;20.47;9.17;;;;;;;7.25;58.19;96224.59;1036835;28;20026;-47
2021/04/25 01:08:14;;;;;;;15.43;9.00;;;;;;;7.16;57.54;96225.63;1036848;28;20045;-48
2021/04/25 01:08:44;;;;;;;16.30;8.90;;;;;;;7.18;57.00;96222.84;1036826;28;20468;-47
2021/04/25 01:09:15;;;;;;;20.20;8.70;;;;;;;7.20;56.91;96219.06;1036972;28;20052;-48
2021/04/25 01:09:45;;;;;;;18.30;8.90;;;;;;;7.28;56.66;96221.63;1037127;28;20467;-48
2021/04/25 01:10:17;;;;;;;15.23;8.90;;;;;;;7.29;56.59;96227.69;1036760;28;20384;-48
2021/04/25 01:10:47;;;;;;;15.02;8.35;;;;;;;7.24;56.60;96220.38;1036828;28;20014;-47
2021/04/25 01:11:18;;;;;;;18.20;8.70;;;;;;;7.25;56.83;96227.22;1036416;28;20017;-48
2021/04/25 01:11:48;;;;;;;12.85;8.57;;;;;;;7.23;57.14;96221.34;1032627;28;20053;-48
2021/04/25 01:12:19;;;;;;;17.00;8.97;;;;;;;7.28;57.55;96228.69;1032479;28;20022;-48
2021/04/25 01:12:50;;;;;;;18.47;8.93;;;;;;;7.31;57.44;96223.09;1032381;28;20173;-48
2021/04/25 01:13:20;;;;;;;15.23;8.57;;;;;;;7.32;57.11;96229.97;1032761;28;20026;-48
2021/04/25 01:13:51;;;;;;;14.37;8.37;;;;;;;7.31;57.23;96228.34;1036706;28;20388;-47
2021/04/25 01:14:22;;;;;;;18.60;8.43;;;;;;;7.32;57.19;96227.34;1036755;28;20528;-48
2021/04/25 01:14:52;;;;;;;16.03;9.20;;;;;;;7.33;57.31;96223.72;1036859;28;20026;-48
2021/04/25 01:15:23;;;;;;;16.33;8.80;;;;;;;7.33;57.01;96225.53;1036791;28;20029;-48
2021/04/25 01:15:53;;;;;;;15.40;8.83;;;;;;;7.34;57.18;96224.56;1036885;28;20022;-48
2021/04/25 01:16:24;;;;;;;15.07;8.93;;;;;;;7.34;57.15;96227.19;1040505;28;20060;-48
2021/04/25 01:16:54;;;;;;;17.03;8.53;;;;;;;7.32;57.41;96224.75;1040752;28;20112;-47
2021/04/25 01:17:25;;;;;;;17.00;8.47;;;;;;;7.30;57.45;96224.06;1040733;28;20104;-47
2021/04/25 01:17:55;;;;;;;15.77;8.87;;;;;;;7.32;57.05;96226.53;1040608;28;20448;-47
2021/04/25 01:18:26;;;;;;;18.23;8.93;;;;;;;7.29;57.69;96230.31;1036942;28;20014;-48
2021/04/25 01:18:56;;;;;;;15.47;8.63;;;;;;;7.26;57.41;96228.03;1036861;28;20022;-48
2021/04/25 01:19:27;;;;;;;13.93;8.57;;;;;;;7.15;57.53;96231.88;1028319;28;20027;-47
2021/04/25 01:19:58;;;;;;;16.77;8.73;;;;;;;7.16;57.79;96230.84;1028471;28;20025;-47
2021/04/25 01:20:28;;;;;;;20.65;9.32;;;;;;;7.15;58.03;96231.88;1028458;28;20022;-50
2021/04/25 01:21:03;;;;;;;15.83;9.00;;;;;;;7.19;58.24;96227.91;1028791;28;20556;-48
2021/04/25 01:21:33;;;;;;;15.05;8.52;;;;;;;7.19;57.64;96230.53;1036862;28;20022;-48
2021/04/25 01:22:04;;;;;;;16.33;7.87;;;;;;;7.20;57.79;96229.53;1036839;28;20022;-47
2021/04/25 01:22:34;;;;;;;14.63;8.33;;;;;;;7.18;57.64;96234.13;1036863;28;20025;-47
2021/04/25 01:23:05;;;;;;;16.03;8.97;;;;;;;7.20;58.05;96231.34;1036908;28;20061;-47
2021/04/25 01:23:35;;;;;;;16.30;9.00;;;;;;;7.22;58.13;96237.22;1036570;28;20021;-49
2021/04/25 01:24:06;;;;;;;15.73;8.20;;;;;;;7.22;57.76;96238.03;1036448;28;20018;-48
2021/04/25 01:24:36;;;;;;;20.13;9.13;;;;;;;7.22;57.79;96237.22;1036318;28;20356;-47
2021/04/25 01:25:08;;;;;;;15.30;8.73;;;;;;;7.19;58.03;96232.31;1036565;28;20025;-47
2021/04/25 01:25:39;;;;;;;15.90;8.32;;;;;;;7.09;58.64;96225.50;1036466;28;20129;-47
2021/04/25 01:26:09;;;;;;;15.97;9.37;;;;;;;7.06;58.59;96231.06;1036811;28;20141;-48
2021/04/25 01:26:40;;;;;;;20.80;8.97;;;;;;;7.06;58.82;96232.84;1040625;28;20025;-47
2021/04/25 01:27:10;;;;;;;15.97;8.37;;;;;;;7.09;58.51;96228.13;1040480;28;20018;-47
2021/04/25 01:27:41;;;;;;;19.13;9.03;;;;;;;7.13;58.43;96235.63;1036831;28;20138;-47
2021/04/25 01:28:11;;;;;;;12.43;8.17;;;;;;;7.13;58.20;96225.16;1036868;28;20407;-47
2021/04/25 01:28:42;;;;;;;14.57;8.30;;;;;;;7.09;58.71;96228.13;1036817;28;20018;-47
2021/04/25 01:29:12;;;;;;;18.70;9.20;;;;;;;7.07;59.29;96226.66;1036802;28;20033;-47
2021/04/25 01:29:43;;;;;;;17.10;9.13;;;;;;;7.08;59.70;96221.25;1036730;28;20460;-46
2021/04/25 01:30:15;;;;;;;15.20;8.70;;;;;;;7.03;59.13;96228.81;1036814;28;20029;-47
2021/04/25 01:30:45;;;;;;;13.98;8.90;;;;;;;7.06;59.22;96225.84;1036830;28;20018;-47
2021/04/25 01:31:16;;;;;;;16.47;9.03;;;;;;;7.05;59.05;96223.41;1036972;28;20017;-47
2021/04/25 01:31:46;;;;;;;18.47;9.03;;;;;;;7.06;58.85;96227.63;1036923;28;20112;-48
2021/04/25 01:32:17;;;;;;;17.30;9.33;;;;;;;7.03;58.57;96220.94;1036853;28;20013;-48
2021/04/25 01:32:47;;;;;;;16.17;8.87;;;;;;;6.99;59.07;96224.06;1036616;28;20041;-47
2021/04/25 01:33:18;;;;;;;14.40;8.60;;;;;;;7.04;59.27;96221.75;1032555;28;20353;-48
2021/04/25 01:33:48;;;;;;;14.77;8.60;;;;;;;7.07;58.89;96224.03;1032366;28;20109;-48
2021/04/25 01:34:19;;;;;;;13.90;8.73;;;;;;;7.14;58.50;96224.19;1032340;28;20022;-47
2021/04/25 01:34:49;;;;;;;15.67;8.67;;;;;;;7.16;58.74;96230.84;1036578;28;20488;-49
2021/04/25 01:35:23;;;;;;;19.83;8.60;;;;;;;7.15;58.81;96226.63;1036882;28;20025;-50
2021/04/25 01:35:53;;;;;;;14.85;8.52;;;;;;;7.16;59.58;96230.06;1032388;28;20110;-50
2021/04/25 01:36:24;;;;;;;16.13;9.27;;;;;;;7.08;59.81;96229.09;1032499;28;20105;-48
2021/04/25 01:36:56;;;;;;;18.80;9.17;;;;;;;7.05;59.87;96226.81;1032511;28;20025;-51
2021/04/25 01:37:27;;;;;;;18.13;8.80;;;;;;;7.10;59.17;96223.69;1033543;28;20023;-48
2021/04/25 01:37:57;;;;;;;14.97;8.93;;;;;;;7.15;59.29;96228.41;1036885;28;20088;-48
2021/04/25 01:38:28;;;;;;;21.67;9.60;;;;;;;7.14;59.65;96232.03;1036476;28;20022;-48
2021/04/25 01:38:58;;;;;;;20.33;9.33;;;;;;;7.10;59.72;96227.09;1036574;28;20018;-48
2021/04/25 01:39:29;;;;;;;18.60;8.60;;;;;;;7.04;60.27;96225.19;1036449;28;20025;-48
2021/04/25 01:40:00;;;;;;;16.23;8.27;;;;;;;7.08;59.67;96225.66;1036402;28;20047;-47
2021/04/25 01:40:31;;;;;;;16.97;8.63;;;;;;;7.08;59.68;96231.72;1036992;28;20017;-47
2021/04/25 01:41:01;;;;;;;20.75;8.65;;;;;;;7.10;60.00;96226.31;1037053;28;20029;-47
2021/04/25 01:41:32;;;;;;;16.00;8.73;;;;;;;7.05;59.76;96229.44;1036913;28;20091;-48
2021/04/25 01:42:02;;;;;;;18.10;9.00;;;;;;;7.04;60.48;96229.59;1036942;28;20511;-48
2021/04/25 01:42:33;;;;;;;14.83;8.93;;;;;;;6.96;59.82;96230.47;1036868;28;20084;-49
2021/04/25 01:43:03;;;;;;;16.00;9.03;;;;;;;6.96;59.72;96227.84;1037037;28;20097;-48
2021/04/25 01:43:34;;;;;;;19.53;9.07;;;;;;;6.98;59.42;96227.66;1036920;28;20020;-47
2021/04/25 01:44:04;;;;;;;16.37;9.10;;;;;;;7.00;60.25;96226.53;1036853;28;20098;-48
2021/04/25 01:44:35;;;;;;;16.00;8.80;;;;;;;7.00;59.94;96234.38;1036678;28;20459;-48
2021/04/25 01:45:06;;;;;;;16.90;8.90;;;;;;;7.02;60.29;96223.75;1036790;28;20029;-47
2021/04/25 01:45:36;;;;;;;17.33;9.05;;;;;;;6.99;60.14;96227.50;1036374;28;20168;-48
2021/04/25 01:46:07;;;;;;;18.63;8.80;;;;;;;7.03;59.39;96230.59;1036342;28;20068;-47
2021/04/25 01:46:37;;;;;;;17.30;8.37;;;;;;;6.97;59.98;96226.03;1036416;28;20476;-47
2021/04/25 01:47:08;;;;;;;15.17;8.50;;;;;;;6.97;60.38;96226.88;1036349;28;20018;-46
2021/04/25 01:47:38;;;;;;;17.63;8.53;;;;;;;6.99;60.17;96230.13;1036783;28;20006;-48
2021/04/25 01:48:09;;;;;;;14.67;9.23;;;;;;;6.93;60.76;96230.81;1036925;28;20014;-47
2021/04/25 01:48:40;;;;;;;16.43;8.57;;;;;;;6.92;60.48;96235.22;1037059;28;20457;-52
2021/04/25 01:49:11;;;;;;;15.23;8.68;;;;;;;6.89;59.92;96229.50;1036981;28;20033;-49
2021/04/25 01:49:41;;;;;;;37.87;9.40;;;;;;;6.88;60.27;96227.88;1036931;28;20096;-48
2021/04/25 01:50:13;;;;;;;18.63;8.63;;;;;;;6.89;60.09;96222.47;1040104;28;20014;-47
2021/04/25 01:50:43;;;;;;;16.73;8.65;;;;;;;6.91;59.95;96228.34;1040287;28;20018;-47
2021/04/25 01:51:13;;;;;;;16.23;8.07;;;;;;;6.94;60.10;96230.63;1040484;28;20425;-47
2021/04/25 01:51:44;;;;;;;14.07;8.77;;;;;;;7.00;59.39;96234.38;1040494;28;20017;-47
2021/04/25 01:52:14;;;;;;;13.10;8.20;;;;;;;7.00;59.47;96225.69;1036725;28;20025;-47
2021/04/25 01:52:45;;;;;;;15.83;8.70;;;;;;;6.98;59.75;96225.06;1036707;28;20021;-47
2021/04/25 01:53:15;;;;;;;17.10;8.90;;;;;;;6.98;60.08;96225.84;1037081;28;20558;-53
2021/04/25 01:53:46;;;;;;;20.80;9.27;;;;;;;6.98;60.12;96223.25;1036815;28;20016;-50
2021/04/25 01:54:16;;;;;;;12.10;8.07;;;;;;;6.93;59.89;96230.81;1036893;28;20491;-52
2021/04/25 01:54:47;;;;;;;15.60;9.03;;;;;;;6.88;60.31;96228.69;1036823;28;20020;-53
2021/04/25 01:55:17;;;;;;;14.27;8.47;;;;;;;6.87;60.19;96228.84;1036903;28;20068;-48
2021/04/25 01:55:48;;;;;;;15.37;8.47;;;;;;;6.85;60.89;96229.03;1036898;28;20014;-46
2021/04/25 01:56:19;;;;;;;15.33;8.30;;;;;;;6.83;60.92;96227.56;1036710;28;20441;-47
2021/04/25 01:56:49;;;;;;;12.70;8.10;;;;;;;6.83;60.96;96228.41;1036552;28;20010;-48
2021/04/25 01:57:20;;;;;;;16.80;8.53;;;;;;;6.84;60.91;96221.34;1036791;28;20037;-48
2021/04/25 01:57:50;;;;;;;16.50;8.10;;;;;;;6.86;61.26;96221.97;1036808;28;20042;-47
2021/04/25 01:58:21;;;;;;;12.73;8.20;;;;;;;6.83;60.66;96227.56;1036849;28;20009;-47
2021/04/25 01:58:51;;;;;;;15.67;8.07;;;;;;;6.77;61.31;96223.81;1036804;28;20018;-47
2021/04/25 01:59:22;;;;;;;16.63;8.93;;;;;;;6.76;60.89;96225.63;1036827;28;20021;-47
2021/04/25 01:59:52;;;;;;;14.50;8.60;;;;;;;6.80;60.81;96223.47;1036682;28;20025;-47
2021/04/25 02:00:33;;;;;;;16.13;8.77;;;;;;;6.80;60.43;96218.22;1036976;28;20017;-47
2021/04/25 02:01:04;;;;;;;16.30;8.32;;;;;;;6.84;60.80;96229.19;1036590;28;20029;-50
2021/04/25 02:01:34;;;;;;;18.13;8.53;;;;;;;6.84;60.88;96222.16;1036657;28;20041;-48
2021/04/25 02:02:05;;;;;;;14.33;8.33;;;;;;;6.81;61.08;96229.53;1036413;28;20022;-47
2021/04/25 02:02:35;;;;;;;15.50;8.03;;;;;;;6.78;60.98;96227.25;1036479;28;20053;-47
2021/04/25 02:03:06;;;;;;;22.07;8.93;;;;;;;6.74;61.04;96226.75;1036434;28;20068;-50
2021/04/25 02:03:37;;;;;;;17.13;8.80;;;;;;;6.75;60.47;96226.59;1036465;28;20033;-47
2021/04/25 02:04:07;;;;;;;13.40;8.20;;;;;;;6.78;60.19;96228.06;1036378;28;20033;-49
2021/04/25 02:04:38;;;;;;;13.47;8.50;;;;;;;6.80;60.29;96227.91;1032277;28;20058;-48
2021/04/25 02:05:09;;;;;;;17.70;8.57;;;;;;;6.71;60.60;96234.94;1032322;28;20069;-47
2021/04/25 02:05:39;;;;;;;15.60;8.55;;;;;;;6.69;60.23;96227.25;1032400;28;20105;-49
2021/04/25 02:06:10;;;;;;;17.00;8.63;;;;;;;6.75;60.27;96231.03;1032591;28;20022;-48
2021/04/25 02:06:42;;;;;;;16.43;8.60;;;;;;;6.73;60.72;96231.19;1036571;28;20495;-48
2021/04/25 02:07:13;;;;;;;15.77;8.60;;;;;;;6.75;60.47;96229.22;1036793;28;20014;-49
2021/04/25 02:07:43;;;;;;;18.43;8.20;;;;;;;6.80;60.27;96227.91;1036640;28;20416;-49
2021/04/25 02:08:14;;;;;;;12.77;8.10;;;;;;;6.80;60.34;96230.50;1036756;28;20018;-47
2021/04/25 02:08:44;;;;;;;18.40;8.73;;;;;;;6.76;60.93;96224.81;1036626;28;20407;-49
2021/04/25 02:09:15;;;;;;;14.03;8.23;;;;;;;6.70;61.57;96228.09;1036779;28;20097;-46
2021/04/25 02:09:45;;;;;;;15.17;8.40;;;;;;;6.73;61.19;96228.56;1036746;28;20057;-46
2021/04/25 02:10:16;;;;;;;17.60;8.70;;;;;;;6.74;60.97;96226.75;1036797;28;20057;-47
2021/04/25 02:10:47;;;;;;;13.80;8.13;;;;;;;6.73;61.30;96225.94;1036757;28;20014;-48
2021/04/25 02:11:17;;;;;;;17.03;8.13;;;;;;;6.73;61.49;96225.94;1036633;28;20424;-47
2021/04/25 02:11:48;;;;;;;16.23;9.03;;;;;;;6.74;62.31;96227.59;1036633;28;20490;-49
2021/04/25 02:12:18;;;;;;;15.53;8.47;;;;;;;6.73;62.87;96225.94;1036710;28;20456;-48
2021/04/25 02:12:49;;;;;;;17.67;8.63;;;;;;;6.75;61.73;96225.78;1036733;28;20068;-48
2021/04/25 02:13:20;;;;;;;14.70;8.15;;;;;;;6.72;61.45;96228.75;1036680;28;20115;-47
2021/04/25 02:13:50;;;;;;;16.40;8.13;;;;;;;6.70;61.85;96231.53;1036589;28;20049;-48
2021/04/25 02:14:21;;;;;;;21.17;8.70;;;;;;;6.72;61.75;96229.53;1036582;28;20072;-47
2021/04/25 02:14:51;;;;;;;12.97;8.40;;;;;;;6.72;61.01;96232.16;1036624;28;20022;-47
2021/04/25 02:15:22;;;;;;;16.37;8.17;;;;;;;6.65;61.63;96233.00;1036677;28;20010;-48
2021/04/25 02:15:53;;;;;;;15.63;8.63;;;;;;;6.61;61.49;96227.31;1036080;28;20018;-48
2021/04/25 02:16:23;;;;;;;18.83;8.43;;;;;;;6.58;62.08;96227.63;1036302;28;20042;-47
2021/04/25 02:16:54;;;;;;;15.83;9.00;;;;;;;6.59;62.49;96229.28;1036374;28;20018;-48
2021/04/25 02:17:24;;;;;;;17.60;8.73;;;;;;;6.60;61.79;96230.88;1036278;28;20113;-48
2021/04/25 02:17:55;;;;;;;14.70;8.23;;;;;;;6.61;61.43;96227.31;1036553;28;20018;-47
2021/04/25 02:18:26;;;;;;;14.73;7.73;;;;;;;6.60;62.01;96232.69;1036631;28;20018;-45
2021/04/25 02:18:57;;;;;;;15.57;8.63;;;;;;;6.60;61.62;96233.50;1036767;28;20050;-46
2021/04/25 02:19:27;;;;;;;18.23;8.80;;;;;;;6.62;61.29;96235.94;1036639;28;20044;-47
2021/04/25 02:19:58;;;;;;;15.03;8.73;;;;;;;6.57;61.77;96232.06;1036687;28;20531;-50
2021/04/25 02:20:29;;;;;;;14.87;8.00;;;;;;;6.55;62.23;96231.41;1036750;28;20025;-47
2021/04/25 02:20:59;;;;;;;16.17;8.40;;;;;;;6.56;62.51;96229.59;1036561;28;20030;-47
2021/04/25 02:21:30;;;;;;;14.67;8.47;;;;;;;6.52;62.29;96223.06;1036370;28;20049;-48
2021/04/25 02:22:00;;;;;;;16.57;8.37;;;;;;;6.54;62.30;96228.94;1036212;28;20543;-48
2021/04/25 02:22:30;;;;;;;13.23;7.97;;;;;;;6.55;62.39;96225.34;1036372;28;20492;-48
2021/04/25 02:23:01;;;;;;;15.10;8.23;;;;;;;6.53;62.72;96229.94;1036311;28;20053;-47
2021/04/25 02:23:31;;;;;;;14.80;8.10;;;;;;;6.49;63.04;96231.25;1036271;28;20025;-47
2021/04/25 02:24:02;;;;;;;12.83;7.97;;;;;;;6.53;62.92;96225.53;1036405;28;20476;-48